createdAt,value
2018-07-06T00:00:39.550Z,26.90
2018-07-06T00:03:19.550Z,26.80
2018-07-06T00:05:59.157Z,26.90
2018-07-06T00:08:38.918Z,26.90
2018-07-06T00:11:18.641Z,26.90
2018-07-06T00:13:58.474Z,26.90
2018-07-06T00:16:38.345Z,26.90
2018-07-06T00:19:17.930Z,26.80
2018-07-06T00:21:57.501Z,26.80
2018-07-06T00:24:37.328Z,26.80
2018-07-06T00:27:17.502Z,26.90
2018-07-06T00:29:57.255Z,26.80
2018-07-06T00:32:37.197Z,26.80
2018-07-06T00:35:17.052Z,26.80
2018-07-06T00:37:56.632Z,26.80
2018-07-06T00:40:36.240Z,26.70
2018-07-06T00:43:15.920Z,26.70
2018-07-06T00:45:55.617Z,26.80
2018-07-06T00:48:35.395Z,26.80
2018-07-06T00:51:15.079Z,26.70
2018-07-06T00:53:54.833Z,26.70
2018-07-06T00:56:34.757Z,26.70
2018-07-06T00:59:14.369Z,26.70
2018-07-06T01:01:54.146Z,26.70
2018-07-06T01:04:34.196Z,26.70
2018-07-06T01:07:14.036Z,26.70
2018-07-06T01:09:54.031Z,26.70
2018-07-06T01:12:42.084Z,26.70
2018-07-06T01:15:27.300Z,26.70
2018-07-06T01:18:06.916Z,26.70
2018-07-06T01:20:46.634Z,26.60
2018-07-06T01:23:26.509Z,26.70
2018-07-06T01:26:06.304Z,26.60
2018-07-06T01:28:46.410Z,26.60
2018-07-06T01:31:26.222Z,26.60
2018-07-06T01:34:06.168Z,26.60
2018-07-06T01:36:46.116Z,26.60
2018-07-06T01:39:26.152Z,26.60
2018-07-06T01:42:05.772Z,26.60
2018-07-06T01:44:45.573Z,26.60
2018-07-06T01:47:25.813Z,26.60
2018-07-06T01:50:05.633Z,26.60
2018-07-06T01:52:45.170Z,26.60
2018-07-06T01:55:25.060Z,26.60
2018-07-06T01:58:04.809Z,26.60
2018-07-06T02:00:44.763Z,26.60
2018-07-06T02:03:24.725Z,26.60
2018-07-06T02:06:04.504Z,26.60
2018-07-06T02:08:44.444Z,26.60
2018-07-06T02:11:24.248Z,26.50
2018-07-06T02:14:03.861Z,26.50
2018-07-06T02:16:43.605Z,26.40
2018-07-06T02:19:23.473Z,26.40
2018-07-06T02:22:03.291Z,26.40
2018-07-06T02:24:43.099Z,26.40
2018-07-06T02:27:22.994Z,26.50
2018-07-06T02:30:02.797Z,26.40
2018-07-06T02:32:42.595Z,26.50
2018-07-06T02:35:22.328Z,26.50
2018-07-06T02:38:02.229Z,26.40
2018-07-06T02:40:41.958Z,26.40
2018-07-06T02:43:21.606Z,26.40
2018-07-06T02:46:01.162Z,26.40
2018-07-06T02:48:40.810Z,26.40
2018-07-06T02:51:20.504Z,26.40
2018-07-06T02:54:00.361Z,26.30
2018-07-06T02:56:40.243Z,26.30
2018-07-06T02:59:20.073Z,26.30
2018-07-06T03:01:59.747Z,26.30
2018-07-06T03:04:39.598Z,26.30
2018-07-06T03:07:19.233Z,26.30
2018-07-06T03:09:59.781Z,26.20
2018-07-06T03:12:39.626Z,26.20
2018-07-06T03:15:19.475Z,26.20
2018-07-06T03:17:59.263Z,26.20
2018-07-06T03:20:39.103Z,26.10
2018-07-06T03:23:18.905Z,26.10
2018-07-06T03:25:58.712Z,26.10
2018-07-06T03:28:38.725Z,26.10
2018-07-06T03:31:18.505Z,26.10
2018-07-06T03:33:58.264Z,26.10
2018-07-06T03:36:38.148Z,26.10
2018-07-06T03:39:17.952Z,26.10
2018-07-06T03:41:57.739Z,26.10
2018-07-06T03:44:37.628Z,26.20
2018-07-06T03:47:17.402Z,26.20
2018-07-06T03:49:57.013Z,26.10
2018-07-06T03:52:36.769Z,26.10
2018-07-06T03:55:20.681Z,26.10
2018-07-06T03:58:01.845Z,26.00
2018-07-06T04:00:41.846Z,25.90
2018-07-06T04:03:21.908Z,25.90
2018-07-06T04:06:02.054Z,25.90
2018-07-06T04:08:41.861Z,25.90
2018-07-06T04:11:21.645Z,25.90
2018-07-06T04:14:01.423Z,25.90
2018-07-06T04:16:41.223Z,25.90
2018-07-06T04:19:21.034Z,26.00
2018-07-06T04:22:00.980Z,26.00
2018-07-06T04:24:40.577Z,26.00
2018-07-06T04:27:20.149Z,26.00
2018-07-06T04:30:00.640Z,26.00
2018-07-06T04:32:40.146Z,26.10
2018-07-06T04:35:19.698Z,26.10
2018-07-06T04:37:59.383Z,26.10
2018-07-06T04:40:39.796Z,26.10
2018-07-06T04:43:19.541Z,26.10
2018-07-06T04:45:59.174Z,26.10
2018-07-06T04:48:38.729Z,26.10
2018-07-06T04:51:19.136Z,26.00
2018-07-06T04:53:58.941Z,26.00
2018-07-06T04:56:38.409Z,25.90
2018-07-06T04:59:18.052Z,26.00
2018-07-06T05:01:58.106Z,26.00
2018-07-06T05:04:37.857Z,25.90
2018-07-06T05:07:17.564Z,25.90
2018-07-06T05:09:57.336Z,25.90
2018-07-06T05:12:37.149Z,25.80
2018-07-06T05:15:17.317Z,25.80
2018-07-06T05:17:56.984Z,25.70
2018-07-06T05:20:36.840Z,25.70
2018-07-06T05:23:16.681Z,25.60
2018-07-06T05:25:56.472Z,25.60
2018-07-06T05:28:36.275Z,25.60
2018-07-06T05:31:16.016Z,25.60
2018-07-06T05:33:55.760Z,25.60
2018-07-06T05:36:35.425Z,25.60
2018-07-06T05:39:15.236Z,25.60
2018-07-06T05:44:28.943Z,25.60
2018-07-06T05:47:08.726Z,25.70
2018-07-06T05:49:48.571Z,25.70
2018-07-06T05:52:28.453Z,25.70
2018-07-06T05:57:41.993Z,25.70
2018-07-06T06:00:21.850Z,25.70
2018-07-06T06:03:01.792Z,25.80
2018-07-06T06:08:03.022Z,25.90
2018-07-06T06:10:31.437Z,25.90
2018-07-06T06:12:59.866Z,26.00
2018-07-06T06:15:28.625Z,26.10
2018-07-06T06:17:57.321Z,26.20
2018-07-06T06:20:26.017Z,26.30
2018-07-06T06:22:54.762Z,26.50
2018-07-06T06:25:23.563Z,26.60
2018-07-06T06:27:52.205Z,26.60
2018-07-06T06:30:20.710Z,26.60
2018-07-06T06:32:49.433Z,26.60
2018-07-06T06:35:17.846Z,26.60
2018-07-06T06:37:46.489Z,26.50
2018-07-06T06:40:15.034Z,26.60
2018-07-06T06:42:43.468Z,26.60
2018-07-06T06:45:12.190Z,26.50
2018-07-06T06:47:40.679Z,26.50
2018-07-06T06:50:09.575Z,26.40
2018-07-06T06:52:38.560Z,26.40
2018-07-06T06:55:07.127Z,26.40
2018-07-06T06:57:36.681Z,26.40
2018-07-06T07:00:05.681Z,26.40
2018-07-06T07:02:34.186Z,26.40
2018-07-06T07:05:02.800Z,26.40
2018-07-06T07:07:31.425Z,26.60
2018-07-06T07:10:00.183Z,26.60
2018-07-06T07:12:29.261Z,26.60
2018-07-06T07:14:57.829Z,26.60
2018-07-06T07:17:26.540Z,26.60
2018-07-06T07:19:55.268Z,26.60
2018-07-06T07:22:24.100Z,26.70
2018-07-06T07:24:52.657Z,26.70
2018-07-06T07:27:21.630Z,26.70
2018-07-06T07:29:50.517Z,26.80
2018-07-06T07:32:19.327Z,26.80
2018-07-06T07:34:47.931Z,26.80
2018-07-06T07:37:16.503Z,26.90
2018-07-06T07:39:45.016Z,26.80
2018-07-06T07:42:14.154Z,26.80
2018-07-06T07:44:42.825Z,26.80
2018-07-06T07:47:11.414Z,26.80
2018-07-06T07:49:40.042Z,26.80
2018-07-06T07:52:19.843Z,26.80
2018-07-06T07:54:53.359Z,26.80
2018-07-06T07:57:22.083Z,26.80
2018-07-06T07:59:51.709Z,26.80
2018-07-06T08:02:20.271Z,26.70
2018-07-06T08:04:49.353Z,26.70
2018-07-06T08:07:18.746Z,26.80
2018-07-06T08:09:47.824Z,26.80
2018-07-06T08:12:16.314Z,26.90
2018-07-06T08:14:44.950Z,26.90
2018-07-06T08:17:13.792Z,26.90
2018-07-06T08:19:44.887Z,26.80
2018-07-06T08:22:13.889Z,26.80
2018-07-06T08:24:42.392Z,26.80
2018-07-06T08:29:41.678Z,26.80
2018-07-06T08:32:11.736Z,26.90
2018-07-06T08:34:51.615Z,26.90
2018-07-06T08:37:34.717Z,26.90
2018-07-06T08:40:03.245Z,26.90
2018-07-06T08:42:33.073Z,26.90
2018-07-06T08:45:02.350Z,27.00
2018-07-06T08:47:31.110Z,27.00
2018-07-06T08:50:00.522Z,27.10
2018-07-06T08:52:29.354Z,27.10
2018-07-06T08:54:59.291Z,27.10
2018-07-06T08:57:29.671Z,27.20
2018-07-06T08:59:58.357Z,27.20
2018-07-06T09:02:28.140Z,27.10
2018-07-06T09:04:57.955Z,27.10
2018-07-06T09:07:27.480Z,27.20
2018-07-06T09:09:57.063Z,27.20
2018-07-06T09:14:55.702Z,27.20
2018-07-06T09:17:25.148Z,27.20
2018-07-06T09:19:54.771Z,27.20
2018-07-06T09:22:23.481Z,27.20
2018-07-06T09:24:53.654Z,27.20
2018-07-06T09:27:22.096Z,27.20
2018-07-06T09:29:50.565Z,27.20
2018-07-06T09:32:19.316Z,27.20
2018-07-06T09:34:47.865Z,27.20
2018-07-06T09:37:16.569Z,27.20
2018-07-06T09:39:45.713Z,27.20
2018-07-06T09:42:14.897Z,27.20
2018-07-06T09:44:43.518Z,27.30
2018-07-06T09:47:11.898Z,27.30
2018-07-06T09:49:40.612Z,27.30
2018-07-06T09:52:09.184Z,27.30
2018-07-06T09:54:37.711Z,27.30
2018-07-06T09:57:06.637Z,27.40
2018-07-06T09:59:35.135Z,27.40
2018-07-06T10:02:03.880Z,27.50
2018-07-06T10:04:33.260Z,27.50
2018-07-06T10:07:01.762Z,27.50
2018-07-06T10:09:30.555Z,27.50
2018-07-06T10:11:59.054Z,27.60
2018-07-06T10:14:27.810Z,27.60
2018-07-06T10:16:56.572Z,27.60
2018-07-06T10:19:25.301Z,27.60
2018-07-06T10:21:54.370Z,27.60
2018-07-06T10:24:23.620Z,27.60
2018-07-06T10:26:52.349Z,27.70
2018-07-06T10:29:35.755Z,27.70
2018-07-06T10:32:25.429Z,27.70
2018-07-06T10:34:54.372Z,27.70
2018-07-06T10:37:23.312Z,27.70
2018-07-06T10:39:52.338Z,27.60
2018-07-06T10:42:20.954Z,27.60
2018-07-06T10:44:50.074Z,27.60
2018-07-06T10:47:19.559Z,27.60
2018-07-06T10:49:48.040Z,27.60
2018-07-06T10:52:17.175Z,27.70
2018-07-06T10:54:46.120Z,27.70
2018-07-06T10:57:14.810Z,27.80
2018-07-06T10:59:43.284Z,27.80
2018-07-06T11:02:12.121Z,27.80
2018-07-06T11:04:41.071Z,27.80
2018-07-06T11:07:10.273Z,27.90
2018-07-06T11:09:39.144Z,27.90
2018-07-06T11:12:07.929Z,28.00
2018-07-06T11:14:37.238Z,28.00
2018-07-06T11:17:06.033Z,28.10
2018-07-06T11:19:34.725Z,28.10
2018-07-06T11:22:03.289Z,28.10
2018-07-06T11:24:31.967Z,28.10
2018-07-06T11:27:01.299Z,28.10
2018-07-06T11:29:30.496Z,28.10
2018-07-06T11:31:59.291Z,28.10
2018-07-06T11:34:27.881Z,28.20
2018-07-06T11:36:56.757Z,28.30
2018-07-06T11:41:53.853Z,28.30
2018-07-06T11:44:23.056Z,28.30
2018-07-06T11:46:51.949Z,28.40
2018-07-06T11:49:21.003Z,28.40
2018-07-06T11:51:49.503Z,28.40
2018-07-06T11:54:18.009Z,28.40
2018-07-06T11:56:46.625Z,28.40
2018-07-06T11:59:15.477Z,28.50
2018-07-06T12:01:44.122Z,28.40
2018-07-06T12:04:13.501Z,28.50
2018-07-06T12:06:42.205Z,28.40
2018-07-06T12:09:10.757Z,28.50
2018-07-06T12:11:39.503Z,28.50
2018-07-06T12:14:08.594Z,28.50
2018-07-06T12:16:37.481Z,28.50
2018-07-06T12:19:05.940Z,28.60
2018-07-06T12:21:34.532Z,28.60
2018-07-06T12:24:03.361Z,28.60
2018-07-06T12:26:31.982Z,28.60
2018-07-06T12:29:00.661Z,28.70
2018-07-06T12:31:29.166Z,28.70
2018-07-06T12:33:58.041Z,28.70
2018-07-06T12:36:26.754Z,28.70
2018-07-06T12:38:55.560Z,28.70
2018-07-06T12:41:24.127Z,28.80
2018-07-06T12:43:53.392Z,28.70
2018-07-06T12:46:22.615Z,28.80
2018-07-06T12:48:51.160Z,28.80
2018-07-06T12:51:19.608Z,28.90
2018-07-06T12:53:48.145Z,28.90
2018-07-06T12:56:16.912Z,28.90
2018-07-06T12:58:46.224Z,28.90
2018-07-06T13:01:14.799Z,28.90
2018-07-06T13:03:43.720Z,28.90
2018-07-06T13:06:12.523Z,29.00
2018-07-06T13:08:40.903Z,29.00
2018-07-06T13:11:09.463Z,29.00
2018-07-06T13:13:38.113Z,29.00
2018-07-06T13:16:07.326Z,29.00
2018-07-06T13:18:36.005Z,29.10
2018-07-06T13:21:04.990Z,29.10
2018-07-06T13:23:33.324Z,29.10
2018-07-06T13:28:30.244Z,29.20
2018-07-06T13:30:58.865Z,29.30
2018-07-06T13:33:27.390Z,29.30
2018-07-06T13:35:57.056Z,29.30
2018-07-06T13:38:25.543Z,29.40
2018-07-06T13:40:54.030Z,29.40
2018-07-06T13:43:22.831Z,29.40
2018-07-06T13:48:19.465Z,29.40
2018-07-06T13:50:48.237Z,29.50
2018-07-06T13:53:16.615Z,29.50
2018-07-06T13:55:45.112Z,29.50
2018-07-06T13:58:13.668Z,29.50
2018-07-06T14:00:42.385Z,29.50
2018-07-06T14:03:10.811Z,29.50
2018-07-06T14:05:39.279Z,29.50
2018-07-06T14:08:07.616Z,29.50
2018-07-06T14:10:36.211Z,29.50
2018-07-06T14:13:05.149Z,29.50
2018-07-06T14:15:33.519Z,29.50
2018-07-06T14:18:02.001Z,29.60
2018-07-06T14:20:30.890Z,29.60
2018-07-06T14:22:59.558Z,29.60
2018-07-06T14:25:28.094Z,29.60
2018-07-06T14:27:57.396Z,29.60
2018-07-06T14:30:26.456Z,29.60
2018-07-06T14:32:55.902Z,29.60
2018-07-06T14:35:24.345Z,29.60
2018-07-06T14:37:52.987Z,29.60
2018-07-06T14:40:21.550Z,29.60
2018-07-06T14:42:50.250Z,29.60
2018-07-06T14:45:18.957Z,29.60
2018-07-06T14:47:47.441Z,29.60
2018-07-06T14:50:16.741Z,29.60
2018-07-06T14:52:45.612Z,29.60
2018-07-06T14:55:14.201Z,29.60
2018-07-06T14:57:43.264Z,29.70
2018-07-06T15:00:11.935Z,29.70
2018-07-06T15:02:40.642Z,29.70
2018-07-06T15:05:09.317Z,29.70
2018-07-06T15:07:37.763Z,29.70
2018-07-06T15:10:06.215Z,29.80
2018-07-06T15:12:35.706Z,29.90
2018-07-06T15:15:04.184Z,29.90
2018-07-06T15:17:32.728Z,29.90
2018-07-06T15:20:01.254Z,29.80
2018-07-06T15:22:29.828Z,29.90
2018-07-06T15:24:58.758Z,29.90
2018-07-06T15:27:27.279Z,29.90
2018-07-06T15:29:56.484Z,29.90
2018-07-06T15:32:25.408Z,29.90
2018-07-06T15:37:22.637Z,29.90
2018-07-06T15:39:51.798Z,30.00
2018-07-06T15:44:49.383Z,30.00
2018-07-06T15:47:18.194Z,30.00
2018-07-06T15:49:47.037Z,30.00
2018-07-06T15:52:16.386Z,30.00
2018-07-06T15:54:45.903Z,30.00
2018-07-06T15:59:44.700Z,30.10
2018-07-06T16:02:13.569Z,30.00
2018-07-06T16:04:42.473Z,30.00
2018-07-06T16:07:11.689Z,29.90
2018-07-06T16:09:40.485Z,29.90
2018-07-06T16:12:10.383Z,29.90
2018-07-06T16:14:39.232Z,29.90
2018-07-06T16:17:07.956Z,29.90
2018-07-06T16:19:36.750Z,29.80
2018-07-06T16:22:05.682Z,29.80
2018-07-06T16:24:34.368Z,29.70
2018-07-06T16:27:03.177Z,29.70
2018-07-06T16:32:00.510Z,29.70
2018-07-06T16:34:29.760Z,29.70
2018-07-06T16:36:58.489Z,29.70
2018-07-06T16:39:27.201Z,29.70
2018-07-06T16:41:56.359Z,29.80
2018-07-06T16:44:24.863Z,29.90
2018-07-06T16:46:53.737Z,29.90
2018-07-06T16:49:22.423Z,29.90
2018-07-06T16:51:50.951Z,29.80
2018-07-06T16:54:19.768Z,29.80
2018-07-06T16:56:48.378Z,29.90
2018-07-06T16:59:17.725Z,29.90
2018-07-06T17:01:46.191Z,29.90
2018-07-06T17:04:14.912Z,30.00
2018-07-06T17:06:44.412Z,30.00
2018-07-06T17:09:13.422Z,30.00
2018-07-06T17:11:42.001Z,29.90
2018-07-06T17:14:10.562Z,29.90
2018-07-06T17:19:07.622Z,29.80
2018-07-06T17:21:37.838Z,29.80
2018-07-06T17:24:06.902Z,29.80
2018-07-06T17:26:35.532Z,29.70
2018-07-06T17:29:04.125Z,29.70
2018-07-06T17:31:32.603Z,29.60
2018-07-06T17:34:01.155Z,29.60
2018-07-06T17:36:29.704Z,29.60
2018-07-06T17:38:58.418Z,29.60
2018-07-06T17:41:27.067Z,29.60
2018-07-06T17:43:55.729Z,29.60
2018-07-06T17:46:24.147Z,29.60
2018-07-06T17:48:52.616Z,29.50
2018-07-06T17:51:21.227Z,29.50
2018-07-06T17:53:49.913Z,29.50
2018-07-06T17:56:18.493Z,29.50
2018-07-06T17:58:47.291Z,29.60
2018-07-06T18:01:15.953Z,29.50
2018-07-06T18:03:44.468Z,29.60
2018-07-06T18:06:12.951Z,29.60
2018-07-06T18:08:41.981Z,29.60
2018-07-06T18:11:10.893Z,29.80
2018-07-06T18:13:42.689Z,29.90
2018-07-06T18:16:14.279Z,29.90
2018-07-06T18:18:42.854Z,30.00
2018-07-06T18:21:11.903Z,29.90
2018-07-06T18:23:40.517Z,29.80
2018-07-06T18:26:09.100Z,29.80
2018-07-06T18:28:37.820Z,29.80
2018-07-06T18:33:35.826Z,29.90
2018-07-06T18:36:04.530Z,29.80
2018-07-06T18:38:33.225Z,29.70
2018-07-06T18:41:03.722Z,29.60
2018-07-06T18:43:32.787Z,29.60
2018-07-06T18:46:02.552Z,29.60
2018-07-06T18:48:31.679Z,29.60
2018-07-06T18:51:01.467Z,29.60
2018-07-06T18:53:30.195Z,29.60
2018-07-06T18:55:59.185Z,29.60
2018-07-06T18:58:27.874Z,29.60
2018-07-06T19:03:24.805Z,29.50
2018-07-06T19:05:53.525Z,29.50
2018-07-06T19:08:21.924Z,29.50
2018-07-06T19:10:50.388Z,29.50
2018-07-06T19:13:19.725Z,29.40
2018-07-06T19:15:48.436Z,29.50
2018-07-06T19:18:16.995Z,29.50
2018-07-06T19:20:45.609Z,29.50
2018-07-06T19:23:14.605Z,29.50
2018-07-06T19:25:43.475Z,29.40
2018-07-06T19:28:11.932Z,29.40
2018-07-06T19:30:40.593Z,29.40
2018-07-06T19:33:09.724Z,29.40
2018-07-06T19:35:38.764Z,29.40
2018-07-06T19:38:07.507Z,29.40
2018-07-06T19:40:36.162Z,29.40
2018-07-06T19:43:04.960Z,29.30
2018-07-06T19:45:33.478Z,29.20
2018-07-06T19:48:02.106Z,29.20
2018-07-06T19:52:59.137Z,29.20
2018-07-06T19:55:27.532Z,29.10
2018-07-06T19:57:55.985Z,29.10
2018-07-06T20:00:24.614Z,29.10
2018-07-06T20:02:53.704Z,29.20
2018-07-06T20:05:22.176Z,29.10
2018-07-06T20:07:50.580Z,29.10
2018-07-06T20:10:19.032Z,29.10
2018-07-06T20:12:47.595Z,29.10
2018-07-06T20:15:16.795Z,29.10
2018-07-06T20:17:46.174Z,29.10
2018-07-06T20:20:14.635Z,29.10
2018-07-06T20:25:11.687Z,29.10
2018-07-06T20:27:40.200Z,29.10
2018-07-06T20:30:08.626Z,29.10
2018-07-06T20:32:37.015Z,29.10
2018-07-06T20:35:05.661Z,29.20
2018-07-06T20:37:34.503Z,29.20
2018-07-06T20:40:03.248Z,29.30
2018-07-06T20:42:32.479Z,29.30
2018-07-06T20:45:01.287Z,29.20
2018-07-06T20:47:29.997Z,29.20
2018-07-06T20:49:58.349Z,29.10
2018-07-06T20:52:27.024Z,29.10
2018-07-06T20:54:55.616Z,29.10
2018-07-06T20:57:24.732Z,29.10
2018-07-06T20:59:53.517Z,29.10
2018-07-06T21:02:22.360Z,29.10
2018-07-06T21:04:51.769Z,29.20
2018-07-06T21:07:20.604Z,29.10
2018-07-06T21:09:49.189Z,29.10
2018-07-06T21:12:17.631Z,29.10
2018-07-06T21:14:46.129Z,29.00
2018-07-06T21:17:14.904Z,28.90
2018-07-06T21:19:43.848Z,28.90
2018-07-06T21:22:13.495Z,28.90
2018-07-06T21:24:42.072Z,28.90
2018-07-06T21:27:10.844Z,28.80
2018-07-06T21:29:39.474Z,28.70
2018-07-06T21:32:07.974Z,28.70
2018-07-06T21:34:37.248Z,28.70
2018-07-06T21:37:07.009Z,28.60
2018-07-06T21:39:35.451Z,28.60
2018-07-06T21:42:03.898Z,28.50
2018-07-06T21:44:32.420Z,28.50
2018-07-06T21:47:07.556Z,28.40
2018-07-06T21:49:36.053Z,28.50
2018-07-06T21:52:04.528Z,28.50
2018-07-06T21:54:33.092Z,28.40
2018-07-06T21:57:01.661Z,28.40
2018-07-06T21:59:30.094Z,28.40
2018-07-06T22:01:58.562Z,28.40
2018-07-06T22:04:27.211Z,28.40
2018-07-06T22:06:55.776Z,28.40
2018-07-06T22:09:24.161Z,28.30
2018-07-06T22:11:52.602Z,28.30
2018-07-06T22:14:21.846Z,28.30
2018-07-06T22:16:50.423Z,28.30
2018-07-06T22:19:19.390Z,28.20
2018-07-06T22:21:48.813Z,28.20
2018-07-06T22:24:18.054Z,28.10
2018-07-06T22:26:46.569Z,28.20
2018-07-06T22:29:14.968Z,28.20
2018-07-06T22:31:44.494Z,28.20
2018-07-06T22:34:13.022Z,28.20
2018-07-06T22:36:41.569Z,28.10
2018-07-06T22:41:38.331Z,28.00
2018-07-06T22:44:06.992Z,27.90
2018-07-06T22:46:35.709Z,27.90
2018-07-06T22:49:04.106Z,27.90
2018-07-06T22:51:33.392Z,27.90
2018-07-06T22:54:01.922Z,27.90
2018-07-06T22:56:30.433Z,27.90
2018-07-06T22:58:58.825Z,27.90
2018-07-06T23:01:27.468Z,27.90
2018-07-06T23:03:56.233Z,27.90
2018-07-06T23:06:25.051Z,28.00
2018-07-06T23:08:53.548Z,27.90
2018-07-06T23:11:22.338Z,27.90
2018-07-06T23:13:50.909Z,27.90
2018-07-06T23:16:19.706Z,27.90
2018-07-06T23:18:48.428Z,27.90
2018-07-06T23:21:17.092Z,27.90
2018-07-06T23:26:13.672Z,28.00
2018-07-06T23:28:42.143Z,28.00
2018-07-06T23:31:10.564Z,28.00
2018-07-06T23:33:39.101Z,28.00
2018-07-06T23:36:07.677Z,27.90
2018-07-06T23:38:36.343Z,27.90
2018-07-06T23:41:04.836Z,27.80
2018-07-06T23:43:33.454Z,27.80
2018-07-06T23:46:02.129Z,27.80
2018-07-06T23:48:30.552Z,27.90
2018-07-06T23:50:59.225Z,27.90
2018-07-06T23:53:27.669Z,27.80
2018-07-06T23:55:56.222Z,27.80
2018-07-06T23:58:24.648Z,27.90
